Time;durP1;ratioP1;P1;durP2;ratioP2;P2;SDS_P1;SDS_P2;PMS_P1;PMS_P2;Temp;Humidity;BMP_temperature;BMP_pressure;BME280_temperature;BME280_humidity;BME280_pressure;Samples;Min_cycle;Max_cycle;Signal;HPM_P1;HPM_P2
2021/12/26 00:00:10;;;;;;;;;27.25;19.50;;;;;16.10;78.66;100056.25;5055588;28;63365;-74
2021/12/26 00:02:39;;;;;;;;;27.50;22.25;;;;;16.10;78.49;100054.47;5054960;28;61940;-74
2021/12/26 00:05:05;;;;;;;;;24.75;19.75;;;;;16.12;78.43;100046.56;5051780;28;62124;-74
2021/12/26 00:07:31;;;;;;;;;25.75;23.00;;;;;16.08;78.18;100040.34;5051951;28;62067;-74
2021/12/26 00:09:56;;;;;;;;;31.75;23.00;;;;;16.07;77.86;100046.53;5054999;28;62232;-74
2021/12/26 00:12:22;;;;;;;;;31.50;19.25;;;;;16.09;78.02;100044.78;5054630;28;62437;-74
2021/12/26 00:14:48;;;;;;;;;27.75;21.50;;;;;16.07;78.05;100037.69;5052429;28;62026;-75
2021/12/26 00:17:14;;;;;;;;;22.75;20.75;;;;;16.06;77.83;100042.09;5055321;28;63346;-74
2021/12/26 00:19:40;;;;;;;;;22.00;20.00;;;;;16.06;77.68;100039.44;5055281;28;62062;-74
2021/12/26 00:22:06;;;;;;;;;26.00;19.25;;;;;16.05;77.73;100042.97;5057970;28;61941;-74
2021/12/26 00:24:31;;;;;;;;;20.75;18.00;;;;;16.05;77.71;100037.69;5054639;28;61911;-74
2021/12/26 00:26:56;;;;;;;;;20.50;20.50;;;;;16.08;77.67;100036.81;5060396;28;61711;-75
2021/12/26 00:29:22;;;;;;;;;18.75;18.00;;;;;16.07;77.97;100033.28;5040130;28;63736;-74
2021/12/26 00:31:48;;;;;;;;;25.50;20.50;;;;;16.09;77.63;100028.00;5056939;28;61750;-74
2021/12/26 00:34:13;;;;;;;;;27.75;20.25;;;;;16.11;77.26;100031.53;5060404;28;63043;-74
2021/12/26 00:36:39;;;;;;;;;24.50;19.25;;;;;16.09;77.45;100033.31;5060927;28;62118;-74
2021/12/26 00:39:05;;;;;;;;;24.00;19.00;;;;;16.10;77.68;100020.06;5060512;28;61924;-74
2021/12/26 00:41:30;;;;;;;;;25.75;19.25;;;;;16.06;77.80;100018.25;5060603;28;61678;-75
2021/12/26 00:43:56;;;;;;;;;29.00;26.25;;;;;15.98;77.75;100014.66;5060388;28;62033;-74
2021/12/26 00:46:21;;;;;;;;;35.00;23.50;;;;;15.97;77.85;100014.66;5060233;28;61774;-74
2021/12/26 00:48:47;;;;;;;;;37.00;25.25;;;;;15.99;78.20;100020.84;5060461;28;62121;-74
2021/12/26 00:51:12;;;;;;;;;26.50;22.00;;;;;16.07;78.18;100011.22;5061778;28;62029;-74
2021/12/26 00:53:38;;;;;;;;;26.75;23.50;;;;;16.08;77.59;100019.16;5064094;28;61773;-74
2021/12/26 00:56:04;;;;;;;;;23.00;20.50;;;;;16.11;77.93;100020.94;5063202;28;61951;-74
2021/12/26 00:58:29;;;;;;;;;30.75;24.00;;;;;16.11;77.81;100027.16;5055846;28;61881;-74
2021/12/26 01:00:55;;;;;;;;;29.50;22.25;;;;;16.09;77.99;100013.00;5064197;28;61908;-74
2021/12/26 01:03:22;;;;;;;;;22.00;18.50;;;;;16.13;77.87;100013.91;5062667;27;61955;-74
2021/12/26 01:05:54;;;;;;;;;28.25;21.75;;;;;16.09;78.02;100015.66;5064573;28;61994;-74
2021/12/26 01:08:24;;;;;;;;;22.25;18.75;;;;;16.10;77.85;100019.19;5053549;28;62190;-74
2021/12/26 01:10:55;;;;;;;;;23.50;23.00;;;;;16.12;77.81;100022.72;5055195;28;61917;-74
2021/12/26 01:15:54;;;;;;;;;32.50;21.75;;;;;16.16;77.81;100024.53;5060339;28;62282;-74
2021/12/26 01:18:20;;;;;;;;;20.25;19.00;;;;;16.18;77.80;100024.56;5062413;28;64801;-74
2021/12/26 01:20:55;;;;;;;;;28.25;19.75;;;;;16.14;77.71;100018.34;5062572;28;62178;-74
2021/12/26 01:23:22;;;;;;;;;30.00;20.00;;;;;16.18;77.41;100016.63;5062707;28;61846;-74
2021/12/26 01:25:48;;;;;;;;;22.50;18.00;;;;;16.19;77.46;100021.03;5063442;28;62678;-74
2021/12/26 01:28:17;;;;;;;;;27.00;19.50;;;;;16.17;77.31;100023.66;5059886;28;61881;-74
2021/12/26 01:30:43;;;;;;;;;29.75;22.25;;;;;16.15;77.54;100015.72;5063465;28;61840;-74
2021/12/26 01:33:12;;;;;;;;;27.25;22.50;;;;;16.18;77.68;100019.25;5062695;28;61900;-74
2021/12/26 01:35:39;;;;;;;;;24.75;22.00;;;;;16.19;77.39;100021.03;5062610;28;62119;-75
2021/12/26 01:38:13;;;;;;;;;28.25;22.75;;;;;16.10;77.34;100017.41;5062581;28;61804;-75
2021/12/26 01:40:45;;;;;;;;;26.50;19.50;;;;;16.10;77.01;100013.88;5063314;28;61866;-74
2021/12/26 01:43:11;;;;;;;;;23.00;22.50;;;;;16.08;76.95;100012.97;5063709;28;61833;-74
2021/12/26 01:45:37;;;;;;;;;23.00;19.75;;;;;16.06;77.51;100007.66;5063530;28;62311;-74
2021/12/26 01:48:04;;;;;;;;;22.50;19.50;;;;;16.07;77.08;100011.22;5062975;28;61781;-74
2021/12/26 01:50:30;;;;;;;;;24.00;20.75;;;;;16.07;77.11;100012.09;5053750;28;62098;-74
2021/12/26 01:52:56;;;;;;;;;27.00;17.25;;;;;16.02;77.10;100012.91;5056832;28;61887;-74
2021/12/26 01:55:40;;;;;;;;;25.25;19.00;;;;;16.02;77.51;100012.91;5063547;28;61889;-74
2021/12/26 01:58:13;;;;;;;;;24.25;19.00;;;;;16.03;77.29;100012.06;5062662;28;61808;-74
2021/12/26 02:00:42;;;;;;;;;20.75;18.00;;;;;16.05;77.53;100011.19;5062156;28;61780;-74
2021/12/26 02:03:08;;;;;;;;;29.50;24.75;;;;;16.06;77.30;100007.66;5063661;28;61776;-74
2021/12/26 02:05:34;;;;;;;;;23.25;18.75;;;;;16.03;77.55;100012.06;5063477;28;61955;-74
2021/12/26 02:07:59;;;;;;;;;26.50;21.75;;;;;16.07;77.48;100019.16;5046108;28;61948;-74
2021/12/26 02:10:25;;;;;;;;;29.75;19.75;;;;;16.08;77.72;100016.50;5046440;28;61869;-74
2021/12/26 02:12:50;;;;;;;;;22.00;21.00;;;;;16.10;77.34;100020.06;5062533;28;61941;-74
2021/12/26 02:15:16;;;;;;;;;25.25;21.75;;;;;16.11;77.52;100018.28;5062068;28;61873;-74
2021/12/26 02:17:42;;;;;;;;;24.75;21.00;;;;;16.09;77.28;100010.34;5056636;28;63684;-74
2021/12/26 02:20:37;;;;;;;;;26.50;20.75;;;;;16.08;77.22;100021.81;5060889;28;62094;-74
2021/12/26 02:23:11;;;;;;;;;23.25;20.50;;;;;16.05;77.45;100024.44;5057975;28;61946;-74
2021/12/26 02:28:13;;;;;;;;;18.50;17.50;;;;;16.05;77.66;100013.84;5058325;28;61770;-74
2021/12/26 02:30:38;;;;;;;;;25.75;21.75;;;;;16.04;77.55;100016.47;5061821;28;61948;-74
2021/12/26 02:33:07;;;;;;;;;31.00;22.50;;;;;16.00;77.76;100014.66;5062192;28;62319;-74
2021/12/26 02:35:33;;;;;;;;;20.50;18.50;;;;;16.02;77.88;100027.03;5062099;28;61988;-74
2021/12/26 02:37:59;;;;;;;;;21.75;19.25;;;;;15.99;78.21;100013.78;5062248;28;62073;-74
2021/12/26 02:40:25;;;;;;;;;23.25;22.25;;;;;15.98;78.22;100011.09;5062381;28;62101;-74
2021/12/26 02:42:50;;;;;;;;;29.00;22.00;;;;;16.02;78.72;100011.16;5061292;28;61814;-74
2021/12/26 02:45:16;;;;;;;;;24.50;23.50;;;;;15.99;78.38;100005.84;5042357;28;61857;-74
2021/12/26 02:47:44;;;;;;;;;27.75;20.00;;;;;16.00;78.26;100009.38;5050345;28;62191;-74
2021/12/26 02:50:18;;;;;;;;;21.50;17.50;;;;;16.02;78.22;100007.63;5060956;28;61817;-74
2021/12/26 02:52:44;;;;;;;;;28.50;19.50;;;;;16.02;78.79;100013.81;5062658;28;61889;-74
2021/12/26 02:55:12;;;;;;;;;24.00;19.25;;;;;15.98;78.06;100004.09;5061980;28;62043;-74
2021/12/26 02:57:38;;;;;;;;;30.25;22.50;;;;;16.01;78.53;100005.88;5061326;28;62171;-74
2021/12/26 03:00:10;;;;;;;;;22.50;18.00;;;;;16.00;78.73;99994.38;5062471;28;62028;-74
2021/12/26 03:02:39;;;;;;;;;25.25;21.25;;;;;15.99;78.56;100003.19;5057351;28;61996;-74
2021/12/26 03:05:05;;;;;;;;;30.00;22.00;;;;;16.01;78.89;100000.56;5054258;28;62344;-74
2021/12/26 03:07:30;;;;;;;;;23.00;18.00;;;;;16.03;78.63;99999.72;5062031;28;61895;-74
2021/12/26 03:09:59;;;;;;;;;23.50;22.50;;;;;15.96;78.42;99997.88;5061990;28;61893;-74
2021/12/26 03:12:26;;;;;;;;;23.75;17.00;;;;;16.02;78.68;100002.31;5061939;28;61977;-74
2021/12/26 03:14:52;;;;;;;;;26.00;21.50;;;;;16.04;79.10;100008.53;5061867;28;62387;-74
2021/12/26 03:17:17;;;;;;;;;23.00;20.25;;;;;15.99;78.28;100000.53;5057487;28;62674;-74
2021/12/26 03:19:43;;;;;;;;;24.75;17.25;;;;;15.96;78.68;100000.53;5062216;28;61977;-74
2021/12/26 03:22:08;;;;;;;;;25.50;22.50;;;;;15.97;78.54;99999.66;5060670;28;61968;-74
2021/12/26 03:24:35;;;;;;;;;19.50;18.25;;;;;15.97;78.36;99999.66;5061499;28;62107;-74
2021/12/26 03:27:02;;;;;;;;;24.75;20.50;;;;;15.97;78.57;99990.81;5060713;28;61936;-74
2021/12/26 03:29:27;;;;;;;;;20.75;18.75;;;;;15.98;78.68;99996.13;5062027;28;61874;-74
2021/12/26 03:31:53;;;;;;;;;27.25;22.50;;;;;15.98;78.39;100000.53;5054728;28;61953;-74
2021/12/26 03:34:19;;;;;;;;;17.25;17.25;;;;;15.95;78.09;100006.69;5060619;28;61911;-74
2021/12/26 03:36:44;;;;;;;;;27.50;20.75;;;;;15.97;78.52;100004.06;5059456;28;62192;-74
2021/12/26 03:39:10;;;;;;;;;32.25;23.25;;;;;15.96;78.36;100000.53;5061077;28;61872;-74
2021/12/26 03:41:35;;;;;;;;;33.50;23.00;;;;;15.93;78.15;100004.00;5061512;28;61754;-74
2021/12/26 03:44:01;;;;;;;;;26.25;18.50;;;;;15.92;78.38;100006.66;5061519;28;62132;-74
2021/12/26 03:46:27;;;;;;;;;23.50;19.75;;;;;15.92;78.32;100001.38;5060593;28;62557;-74
2021/12/26 03:48:52;;;;;;;;;17.50;16.75;;;;;15.91;78.39;100000.47;5055871;28;61976;-74
2021/12/26 03:51:20;;;;;;;;;21.50;20.50;;;;;15.91;78.41;99999.59;5060098;28;61944;-74
2021/12/26 03:53:45;;;;;;;;;27.50;24.00;;;;;15.92;78.70;99996.97;5061625;28;61948;-74
2021/12/26 03:56:11;;;;;;;;;30.50;20.75;;;;;15.89;78.59;99993.38;5061563;28;63607;-74
2021/12/26 03:58:38;;;;;;;;;24.50;19.50;;;;;15.90;78.42;99988.13;5061051;28;61839;-74
2021/12/26 04:01:04;;;;;;;;;23.75;19.00;;;;;15.90;78.39;99987.22;5061662;28;61849;-74
2021/12/26 04:03:29;;;;;;;;;21.50;18.00;;;;;15.91;78.49;99989.88;5060568;28;61725;-74
2021/12/26 04:05:55;;;;;;;;;30.75;24.25;;;;;15.92;78.50;99991.66;5060522;28;61867;-74
2021/12/26 04:08:20;;;;;;;;;21.25;17.50;;;;;15.97;78.56;99985.53;5060792;28;62036;-74
2021/12/26 04:10:46;;;;;;;;;27.00;21.75;;;;;15.98;78.29;99989.94;5061262;28;61758;-74
2021/12/26 04:13:12;;;;;;;;;22.25;18.25;;;;;15.98;78.33;99984.63;5059389;28;62193;-74
2021/12/26 04:15:37;;;;;;;;;28.25;21.00;;;;;15.99;77.98;99981.13;5057980;28;62333;-74
2021/12/26 04:18:04;;;;;;;;;28.00;20.50;;;;;15.95;78.16;99973.16;5054645;28;61868;-74
2021/12/26 04:20:29;;;;;;;;;27.75;21.75;;;;;15.93;78.16;99979.31;5059382;28;61926;-74
2021/12/26 04:22:56;;;;;;;;;28.00;21.50;;;;;15.85;78.42;99968.66;5061383;28;61762;-74
2021/12/26 04:25:22;;;;;;;;;20.00;17.75;;;;;15.90;78.58;99972.22;5059756;28;65093;-74
2021/12/26 04:27:49;;;;;;;;;25.50;22.00;;;;;15.93;78.45;99977.53;5059952;28;61935;-74
2021/12/26 04:30:15;;;;;;;;;30.00;20.25;;;;;15.95;78.40;99977.56;5062177;28;61940;-74
2021/12/26 04:32:41;;;;;;;;;24.25;20.25;;;;;15.96;78.39;99971.41;5061180;28;61924;-74
2021/12/26 04:35:08;;;;;;;;;22.00;19.50;;;;;15.94;78.18;99970.50;5059880;28;65343;-74
2021/12/26 04:37:34;;;;;;;;;32.25;21.75;;;;;15.91;78.64;99968.69;5064028;28;61718;-74
2021/12/26 04:40:01;;;;;;;;;24.25;21.00;;;;;15.92;78.19;99973.13;5064974;28;62173;-74
2021/12/26 04:42:26;;;;;;;;;29.75;20.75;;;;;15.90;78.33;99977.53;5064654;28;61929;-74
2021/12/26 04:44:53;;;;;;;;;27.25;23.50;;;;;15.92;78.54;99967.84;5063781;28;62355;-74
2021/12/26 04:47:19;;;;;;;;;33.75;20.25;;;;;15.93;78.27;99966.06;5044483;28;61988;-74
2021/12/26 04:49:44;;;;;;;;;25.00;23.75;;;;;15.92;77.99;99964.31;5053511;28;61789;-74
2021/12/26 04:52:10;;;;;;;;;26.25;25.50;;;;;15.91;78.30;99962.53;5064565;28;61762;-74
2021/12/26 04:54:35;;;;;;;;;20.00;19.25;;;;;15.89;78.18;99956.31;5063838;28;61861;-74
2021/12/26 04:57:00;;;;;;;;;22.25;19.00;;;;;15.87;78.54;99951.00;5063942;28;61737;-74
2021/12/26 04:59:26;;;;;;;;;29.75;25.00;;;;;15.86;78.61;99951.91;5064743;28;61886;-74
2021/12/26 05:01:53;;;;;;;;;24.25;22.25;;;;;15.86;78.64;99953.66;5063747;28;62117;-74
2021/12/26 05:04:19;;;;;;;;;27.50;24.00;;;;;15.87;78.75;99950.13;5063743;28;61943;-74
2021/12/26 05:06:45;;;;;;;;;28.25;23.00;;;;;15.89;78.96;99951.91;5079455;28;61977;-74
2021/12/26 05:09:14;;;;;;;;;25.50;21.25;;;;;15.94;78.51;99944.03;5064226;28;61887;-74
2021/12/26 05:11:50;;;;;;;;;22.75;20.75;;;;;15.95;78.83;99948.44;5064369;28;62110;-74
2021/12/26 05:14:16;;;;;;;;;29.00;21.75;;;;;15.90;78.82;99944.88;5063328;28;61934;-74
2021/12/26 05:16:41;;;;;;;;;24.50;18.00;;;;;15.90;79.02;99959.00;5062509;28;62197;-74
2021/12/26 05:19:07;;;;;;;;;26.75;21.50;;;;;15.85;78.61;99946.59;5062938;28;61836;-74
2021/12/26 05:21:32;;;;;;;;;21.50;20.25;;;;;15.82;79.06;99939.50;5064170;28;62547;-74
2021/12/26 05:23:58;;;;;;;;;22.25;17.50;;;;;15.83;79.19;99935.09;5056989;28;63695;-74
2021/12/26 05:26:24;;;;;;;;;23.00;20.50;;;;;15.82;78.83;99935.97;5043793;28;62150;-74
2021/12/26 05:28:50;;;;;;;;;23.25;14.25;;;;;15.78;78.90;99940.34;5059299;28;61920;-74
2021/12/26 05:31:15;;;;;;;;;24.50;20.00;;;;;15.82;79.23;99950.09;5061155;28;61832;-74
2021/12/26 05:33:41;;;;;;;;;19.75;19.50;;;;;15.83;78.99;99948.31;5078786;28;62666;-74
2021/12/26 05:36:06;;;;;;;;;24.75;19.00;;;;;15.84;78.81;99945.72;5062722;28;62288;-74
2021/12/26 05:38:32;;;;;;;;;30.75;20.50;;;;;15.82;78.82;99935.97;5079765;28;62023;-74
2021/12/26 05:40:57;;;;;;;;;21.00;19.50;;;;;15.83;78.73;99940.38;5063535;28;62006;-74
2021/12/26 05:43:22;;;;;;;;;20.00;16.50;;;;;15.79;78.98;99942.16;5063242;28;62190;-74
2021/12/26 05:45:48;;;;;;;;;24.25;21.00;;;;;15.80;79.04;99935.09;5057846;28;61912;-74
2021/12/26 05:48:13;;;;;;;;;27.00;20.50;;;;;15.83;79.10;99940.38;5043720;28;62342;-74
2021/12/26 05:50:39;;;;;;;;;16.25;14.75;;;;;15.85;79.00;99941.28;5066077;28;61942;-74
2021/12/26 05:53:04;;;;;;;;;27.25;18.25;;;;;15.87;78.74;99943.06;5042643;28;61929;-74
2021/12/26 05:55:31;;;;;;;;;20.75;17.75;;;;;15.87;78.81;99945.72;5052080;28;61694;-74
2021/12/26 05:57:57;;;;;;;;;26.50;18.25;;;;;15.90;78.68;99947.53;5063460;28;61944;-74
2021/12/26 06:00:22;;;;;;;;;21.00;18.50;;;;;15.93;78.72;99944.91;5063610;28;61739;-74
2021/12/26 06:02:50;;;;;;;;;23.50;17.75;;;;;15.95;78.95;99949.31;5042982;28;63639;-74
2021/12/26 06:05:17;;;;;;;;;21.00;16.50;;;;;15.98;78.62;99944.94;5060600;28;62176;-74
2021/12/26 06:07:43;;;;;;;;;23.00;15.00;;;;;16.01;78.71;99943.22;5063589;28;62186;-74
2021/12/26 06:10:09;;;;;;;;;21.25;18.00;;;;;16.02;78.62;99944.09;5062724;28;61713;-74
2021/12/26 06:12:35;;;;;;;;;18.25;17.00;;;;;15.98;78.66;99937.00;5062746;28;61924;-74
2021/12/26 06:15:00;;;;;;;;;23.25;17.25;;;;;16.00;78.53;99938.78;5061938;28;62365;-74
2021/12/26 06:17:25;;;;;;;;;20.75;17.00;;;;;15.98;78.41;99937.00;5056993;28;62351;-74
2021/12/26 06:19:51;;;;;;;;;19.25;17.50;;;;;15.95;78.42;99946.69;5061982;28;61777;-74
2021/12/26 06:22:16;;;;;;;;;20.25;14.75;;;;;15.94;78.77;99936.97;5057679;28;64922;-74
2021/12/26 06:24:42;;;;;;;;;17.25;12.50;;;;;15.99;78.72;99947.59;5045546;28;62059;-74
2021/12/26 06:27:08;;;;;;;;;18.50;16.75;;;;;16.02;78.67;99936.16;5062481;28;62393;-74
2021/12/26 06:29:34;;;;;;;;;22.50;17.50;;;;;16.00;78.59;99935.25;5063002;28;62071;-74
2021/12/26 06:31:59;;;;;;;;;15.25;14.25;;;;;16.05;78.44;99944.13;5050109;28;63799;-74
2021/12/26 06:34:25;;;;;;;;;20.25;18.00;;;;;16.04;78.55;99929.09;5062162;28;61847;-74
2021/12/26 06:36:50;;;;;;;;;21.25;19.00;;;;;16.01;78.74;99937.91;5062807;28;62043;-74
2021/12/26 06:39:16;;;;;;;;;19.25;19.25;;;;;16.04;78.75;99942.34;5062859;28;62111;-74
2021/12/26 06:41:41;;;;;;;;;20.25;16.00;;;;;16.04;78.44;99939.69;5062085;28;62052;-74
2021/12/26 06:44:07;;;;;;;;;19.75;15.50;;;;;16.05;78.43;99931.78;5060632;28;62086;-74
2021/12/26 06:46:35;;;;;;;;;20.50;14.25;;;;;16.05;78.44;99933.53;5047831;28;61924;-74
2021/12/26 06:49:00;;;;;;;;;17.75;10.75;;;;;16.03;78.53;99940.59;5061705;28;61901;-74
2021/12/26 06:51:26;;;;;;;;;16.50;14.50;;;;;15.99;78.41;99938.78;5061498;28;61982;-74
2021/12/26 06:53:51;;;;;;;;;18.25;15.25;;;;;15.95;78.44;99933.44;5067952;28;62119;-74
2021/12/26 06:56:17;;;;;;;;;19.25;14.00;;;;;15.99;78.41;99933.50;5042985;28;62216;-74
2021/12/26 06:58:42;;;;;;;;;11.25;11.25;;;;;16.00;78.31;99936.13;5052372;28;61917;-73
2021/12/26 07:01:10;;;;;;;;;12.50;10.25;;;;;15.96;78.29;99937.00;5056830;28;63884;-75
2021/12/26 07:03:36;;;;;;;;;10.50;10.50;;;;;15.99;78.50;99936.13;5061736;28;62009;-75
2021/12/26 07:06:01;;;;;;;;;16.75;14.00;;;;;16.00;78.52;99937.91;5058770;28;62028;-75
2021/12/26 07:08:26;;;;;;;;;15.25;11.75;;;;;15.98;78.71;99926.41;5053056;28;62207;-75
2021/12/26 07:10:52;;;;;;;;;22.75;13.50;;;;;16.00;78.81;99925.53;5065116;28;65197;-75
2021/12/26 07:13:17;;;;;;;;;12.50;9.50;;;;;16.04;78.49;99930.00;5051266;28;61995;-75
2021/12/26 07:15:43;;;;;;;;;13.50;11.50;;;;;16.06;78.85;99936.19;5051017;28;61913;-75
2021/12/26 07:18:08;;;;;;;;;16.75;12.75;;;;;16.03;78.34;99937.94;5053568;28;61737;-75
2021/12/26 07:20:34;;;;;;;;;13.75;12.00;;;;;16.02;78.46;99936.16;5049627;28;62909;-75
2021/12/26 07:23:00;;;;;;;;;14.00;10.50;;;;;16.04;78.28;99948.53;5052512;28;62188;-74
2021/12/26 07:25:25;;;;;;;;;17.25;10.00;;;;;16.06;78.54;99943.25;5053103;28;62170;-75
2021/12/26 07:27:51;;;;;;;;;11.00;11.00;;;;;16.10;78.41;99942.41;5052965;28;62221;-75
2021/12/26 07:30:16;;;;;;;;;10.75;10.25;;;;;16.06;78.17;99938.84;5051148;28;62179;-75
2021/12/26 07:32:42;;;;;;;;;10.25;9.25;;;;;16.04;78.64;99950.28;5068465;28;62297;-75
2021/12/26 07:35:08;;;;;;;;;9.25;8.75;;;;;16.05;78.68;99946.78;5051746;28;62059;-75
2021/12/26 07:37:34;;;;;;;;;12.00;10.00;;;;;16.07;78.76;99953.84;5053509;28;62283;-75
2021/12/26 07:40:00;;;;;;;;;15.25;10.00;;;;;16.11;79.23;99938.88;5052518;28;63494;-74
2021/12/26 07:42:26;;;;;;;;;13.00;13.00;;;;;16.13;79.06;99945.06;5052124;28;62127;-75
2021/12/26 07:44:51;;;;;;;;;15.75;13.50;;;;;16.13;78.93;99947.72;5055153;28;62056;-74
2021/12/26 07:47:17;;;;;;;;;15.25;11.75;;;;;16.15;78.97;99944.22;5053787;28;62309;-74
2021/12/26 07:49:42;;;;;;;;;10.75;9.50;;;;;16.15;79.01;99946.88;5065931;28;64956;-74
2021/12/26 07:52:13;;;;;;;;;12.00;12.00;;;;;16.16;78.90;99945.09;5051334;28;62727;-74
2021/12/26 07:54:39;;;;;;;;;15.00;11.50;;;;;16.18;78.87;99945.13;5056867;28;62349;-74
2021/12/26 07:57:06;;;;;;;;;12.00;11.50;;;;;16.19;78.99;99947.75;5051664;28;61924;-74
2021/12/26 07:59:32;;;;;;;;;11.00;9.75;;;;;16.19;78.90;99949.53;5049147;28;61927;-74
2021/12/26 08:01:58;;;;;;;;;13.50;10.00;;;;;16.22;78.83;99954.88;5050252;28;62103;-75
2021/12/26 08:04:23;;;;;;;;;16.50;13.25;;;;;16.22;78.89;99960.16;5065159;28;61821;-75
2021/12/26 08:06:49;;;;;;;;;12.00;9.25;;;;;16.21;79.05;99961.03;5050308;28;61769;-74
2021/12/26 08:09:14;;;;;;;;;13.25;10.25;;;;;16.21;78.82;99956.59;5044687;28;61786;-75
2021/12/26 08:11:40;;;;;;;;;14.25;9.25;;;;;16.24;78.85;99961.94;5058587;28;62073;-75
2021/12/26 08:14:06;;;;;;;;;15.50;13.25;;;;;16.27;79.18;99964.59;5061374;28;62280;-75
2021/12/26 08:16:31;;;;;;;;;11.50;11.00;;;;;16.27;78.89;99967.25;5060779;28;61939;-75
2021/12/26 08:18:57;;;;;;;;;16.00;12.25;;;;;16.25;79.17;99955.75;5060296;28;61777;-75
2021/12/26 08:21:22;;;;;;;;;17.25;13.00;;;;;16.29;78.88;99960.22;5060333;28;61900;-75
2021/12/26 08:23:48;;;;;;;;;14.25;9.25;;;;;16.30;78.79;99961.09;5061208;28;61922;-76
2021/12/26 08:26:14;;;;;;;;;14.75;13.00;;;;;16.32;78.79;99960.25;5074284;28;62187;-74
2021/12/26 08:28:39;;;;;;;;;7.75;7.25;;;;;16.33;79.13;99963.78;5043542;28;61877;-74
2021/12/26 08:31:05;;;;;;;;;12.25;11.50;;;;;16.32;79.23;99969.94;5058328;28;61856;-74
2021/12/26 08:33:31;;;;;;;;;12.25;9.75;;;;;16.33;79.08;99975.25;5060735;28;61943;-74
2021/12/26 08:35:57;;;;;;;;;18.00;12.00;;;;;16.35;79.17;99968.22;5061667;28;61790;-74
2021/12/26 08:38:23;;;;;;;;;11.75;11.00;;;;;16.40;79.22;99972.66;5060189;28;61927;-74
2021/12/26 08:40:53;;;;;;;;;13.25;12.00;;;;;16.42;79.25;99974.44;5045842;28;61807;-74
2021/12/26 08:43:18;;;;;;;;;11.50;11.00;;;;;16.43;79.13;99975.31;5053024;28;61968;-74
2021/12/26 08:45:45;;;;;;;;;16.25;12.00;;;;;16.43;79.23;99976.22;5061144;28;61786;-74
2021/12/26 08:48:10;;;;;;;;;16.50;13.25;;;;;16.44;79.16;99982.41;5051032;28;61945;-74
2021/12/26 08:50:36;;;;;;;;;17.50;16.25;;;;;16.44;79.39;99983.28;5057634;28;62159;-74
2021/12/26 08:53:03;;;;;;;;;10.50;10.50;;;;;16.48;79.25;99987.72;5055547;28;61739;-75
2021/12/26 08:55:28;;;;;;;;;12.50;11.75;;;;;16.47;79.24;99985.94;5060752;28;61738;-75
2021/12/26 08:57:54;;;;;;;;;13.50;12.50;;;;;16.48;79.21;99982.44;5058565;28;62539;-75
2021/12/26 09:00:21;;;;;;;;;19.50;14.25;;;;;16.52;79.60;99988.66;5060653;28;61930;-75
2021/12/26 09:02:48;;;;;;;;;17.00;11.00;;;;;16.55;79.23;99988.66;5060010;28;62035;-74
2021/12/26 09:05:15;;;;;;;;;16.25;14.00;;;;;16.60;79.13;99984.25;5060689;28;61790;-74
2021/12/26 09:07:41;;;;;;;;;15.00;11.50;;;;;16.58;79.10;99996.63;5059763;28;61968;-74
2021/12/26 09:10:08;;;;;;;;;9.75;7.75;;;;;16.60;79.03;99993.97;5058246;28;62019;-74
2021/12/26 09:12:34;;;;;;;;;15.00;11.00;;;;;16.60;79.08;99994.84;5062473;28;61843;-75
2021/12/26 09:15:01;;;;;;;;;12.00;12.00;;;;;16.61;78.94;100004.59;5073026;28;62201;-76
2021/12/26 09:17:26;;;;;;;;;14.00;12.00;;;;;16.63;79.34;100013.44;5062220;28;62676;-75
2021/12/26 09:19:51;;;;;;;;;12.00;10.50;;;;;16.66;78.98;100004.63;5063626;28;61883;-74
2021/12/26 09:22:17;;;;;;;;;15.50;13.00;;;;;16.65;79.13;100009.06;5061013;28;61874;-75
2021/12/26 09:24:45;;;;;;;;;12.50;11.75;;;;;16.70;78.96;100007.31;5051548;28;62092;-74
2021/12/26 09:27:11;;;;;;;;;14.00;12.00;;;;;16.68;79.09;100014.34;5077795;28;64477;-75
2021/12/26 09:29:37;;;;;;;;;9.50;8.50;;;;;16.68;78.88;100006.41;5063527;28;62306;-75
2021/12/26 09:32:03;;;;;;;;;14.00;10.00;;;;;16.71;78.76;100021.44;5063106;28;61889;-75
2021/12/26 09:34:31;;;;;;;;;13.75;11.00;;;;;16.71;79.05;100018.78;5078812;28;61768;-74
2021/12/26 09:36:58;;;;;;;;;15.50;11.75;;;;;16.75;78.93;100012.63;5043027;28;64243;-74
2021/12/26 09:39:23;;;;;;;;;13.25;11.50;;;;;16.72;78.95;100010.84;5053307;28;62052;-74
2021/12/26 09:41:52;;;;;;;;;13.50;11.00;;;;;16.77;78.71;100008.22;5053783;28;62126;-77
2021/12/26 09:44:17;;;;;;;;;10.00;7.25;;;;;16.82;78.85;100011.84;5050426;28;61853;-76
2021/12/26 09:46:43;;;;;;;;;10.50;8.25;;;;;16.80;78.52;100005.66;5049704;28;62031;-76
2021/12/26 09:49:09;;;;;;;;;9.75;8.00;;;;;16.85;78.37;100018.94;5056458;28;62049;-77
2021/12/26 09:51:35;;;;;;;;;12.25;10.75;;;;;16.89;78.60;100018.06;5054551;28;62804;-77
2021/12/26 09:54:05;;;;;;;;;8.50;7.75;;;;;16.92;78.34;100013.69;5056075;28;61841;-76
2021/12/26 09:56:31;;;;;;;;;13.50;9.50;;;;;16.92;78.19;100010.13;5052926;28;61974;-76
2021/12/26 09:59:08;;;;;;;;;10.75;9.25;;;;;17.00;78.45;100012.84;5052834;28;62535;-76
2021/12/26 10:01:42;;;;;;;;;17.25;11.25;;;;;17.03;78.35;100008.44;5063573;28;62080;-76
2021/12/26 10:04:22;;;;;;;;;14.00;10.00;;;;;17.04;78.23;100015.50;5061936;28;61805;-76
2021/12/26 10:06:51;;;;;;;;;7.75;6.75;;;;;17.03;78.02;100021.72;5061193;28;63409;-77
2021/12/26 10:09:18;;;;;;;;;8.00;7.00;;;;;16.99;78.26;100014.59;5058684;28;61805;-75
2021/12/26 10:11:52;;;;;;;;;16.00;8.50;;;;;17.03;78.47;100020.78;5044131;28;61699;-75
2021/12/26 10:14:20;;;;;;;;;10.75;8.50;;;;;17.00;78.24;100016.38;5051523;28;62705;-75
2021/12/26 10:16:48;;;;;;;;;11.50;9.25;;;;;17.00;78.14;100016.38;5067186;27;64263;-75
2021/12/26 10:19:15;;;;;;;;;10.25;9.25;;;;;17.06;78.19;100010.22;5072293;27;62072;-75
2021/12/26 10:21:47;;;;;;;;;10.50;9.50;;;;;17.07;77.70;100001.38;5046153;28;62157;-75
2021/12/26 10:24:26;;;;;;;;;8.75;8.00;;;;;17.10;77.96;100002.28;5047421;28;62350;-75
2021/12/26 10:26:58;;;;;;;;;8.75;7.00;;;;;17.08;77.98;99992.56;5068127;27;61900;-75
2021/12/26 10:29:33;;;;;;;;;9.25;8.25;;;;;17.06;77.87;99994.31;5049444;28;62367;-75
2021/12/26 10:32:18;;;;;;;;;8.00;7.00;;;;;17.08;77.93;99992.56;5070113;28;62043;-75
2021/12/26 10:34:51;;;;;;;;;11.75;8.25;;;;;17.07;77.88;99986.34;5053750;28;62049;-75
2021/12/26 10:37:21;;;;;;;;;6.00;6.00;;;;;17.03;78.02;99988.97;5050186;28;61861;-75
2021/12/26 10:39:57;;;;;;;;;10.75;7.00;;;;;17.03;78.38;99992.53;5052612;28;62017;-75
2021/12/26 10:42:30;;;;;;;;;11.50;8.00;;;;;17.08;78.17;99985.47;5050533;28;62016;-75
2021/12/26 10:45:01;;;;;;;;;13.75;12.50;;;;;17.15;77.95;99989.03;5053965;28;62231;-74
2021/12/26 10:47:29;;;;;;;;;14.25;10.75;;;;;17.22;77.71;99987.31;5056216;28;61740;-74
2021/12/26 10:49:58;;;;;;;;;14.00;9.75;;;;;17.19;78.03;99976.69;5062281;28;61913;-74
2021/12/26 10:52:58;;;;;;;;;9.75;8.00;;;;;17.23;77.91;99986.44;5058184;28;61727;-75
2021/12/26 10:55:37;;;;;;;;;9.50;7.50;;;;;17.23;77.99;99984.66;5058772;28;62006;-74
2021/12/26 10:58:05;;;;;;;;;15.25;8.00;;;;;17.17;78.04;99982.88;5061463;28;61984;-74
2021/12/26 11:00:34;;;;;;;;;6.25;6.00;;;;;17.15;79.40;99983.75;5056787;28;62695;-75
2021/12/26 11:03:04;;;;;;;;;8.75;7.25;;;;;17.00;80.88;99967.75;5060113;28;61789;-73
2021/12/26 11:05:35;;;;;;;;;8.75;8.75;;;;;16.99;80.47;99972.19;5069429;27;61842;-75
2021/12/26 11:08:07;;;;;;;;;7.75;7.75;;;;;16.75;88.13;99976.44;5050434;28;61898;-76
2021/12/26 11:10:43;;;;;;;;;11.50;11.00;;;;;16.65;89.47;99982.56;5049067;28;62128;-74
2021/12/26 11:13:34;;;;;;;;;8.00;6.75;;;;;16.60;89.45;99978.09;5051450;28;61801;-74
2021/12/26 11:16:04;;;;;;;;;12.75;10.50;;;;;16.58;88.28;99974.53;5052058;28;62205;-74
2021/12/26 11:18:29;;;;;;;;;12.00;9.00;;;;;16.49;92.03;99973.59;5063753;28;63342;-74
2021/12/26 11:21:01;;;;;;;;;9.00;6.75;;;;;16.49;95.18;99981.53;5052275;28;61901;-76